sensor_id;sensor_type;location;lat;lon;timestamp;temperature;humidity
24560;DHT22;12727;49.934;8.656;2022-09-20T00:01:05;11.40;99.90
24560;DHT22;12727;49.934;8.656;2022-09-20T00:03:33;11.50;99.90
24560;DHT22;12727;49.934;8.656;2022-09-20T00:06:02;11.60;99.90
24560;DHT22;12727;49.934;8.656;2022-09-20T00:08:28;11.60;99.90
24560;DHT22;12727;49.934;8.656;2022-09-20T00:11:06;11.50;99.90
24560;DHT22;12727;49.934;8.656;2022-09-20T00:13:33;11.60;99.90
24560;DHT22;12727;49.934;8.656;2022-09-20T00:15:59;11.60;99.90
24560;DHT22;12727;49.934;8.656;2022-09-20T00:18:28;11.50;99.90
24560;DHT22;12727;49.934;8.656;2022-09-20T00:20:54;11.50;99.90
24560;DHT22;12727;49.934;8.656;2022-09-20T00:23:19;11.40;99.90
24560;DHT22;12727;49.934;8.656;2022-09-20T00:25:47;11.40;99.90
24560;DHT22;12727;49.934;8.656;2022-09-20T00:28:18;11.50;99.90
24560;DHT22;12727;49.934;8.656;2022-09-20T00:30:43;11.50;99.90
24560;DHT22;12727;49.934;8.656;2022-09-20T00:33:09;11.60;99.90
24560;DHT22;12727;49.934;8.656;2022-09-20T00:35:34;11.50;99.90
24560;DHT22;12727;49.934;8.656;2022-09-20T00:38:00;11.30;99.90
24560;DHT22;12727;49.934;8.656;2022-09-20T00:40:25;11.20;99.90
24560;DHT22;12727;49.934;8.656;2022-09-20T00:42:51;11.10;99.90
24560;DHT22;12727;49.934;8.656;2022-09-20T00:45:25;11.20;99.90
24560;DHT22;12727;49.934;8.656;2022-09-20T00:47:58;11.00;99.90
24560;DHT22;12727;49.934;8.656;2022-09-20T00:52:57;11.10;99.90
24560;DHT22;12727;49.934;8.656;2022-09-20T00:55:25;11.20;99.90
24560;DHT22;12727;49.934;8.656;2022-09-20T00:57:52;11.00;99.90
24560;DHT22;12727;49.934;8.656;2022-09-20T01:00:18;11.00;99.90
24560;DHT22;12727;49.934;8.656;2022-09-20T01:02:47;11.00;99.90
24560;DHT22;12727;49.934;8.656;2022-09-20T01:05:15;11.10;99.90
24560;DHT22;12727;49.934;8.656;2022-09-20T01:07:42;11.00;99.90
24560;DHT22;12727;49.934;8.656;2022-09-20T01:10:09;11.00;99.90
24560;DHT22;12727;49.934;8.656;2022-09-20T01:12:36;10.90;99.90
24560;DHT22;12727;49.934;8.656;2022-09-20T01:15:05;10.60;99.90
24560;DHT22;12727;49.934;8.656;2022-09-20T01:17:34;10.30;99.90
24560;DHT22;12727;49.934;8.656;2022-09-20T01:20:15;10.20;99.90
24560;DHT22;12727;49.934;8.656;2022-09-20T01:28:45;9.90;99.90
24560;DHT22;12727;49.934;8.656;2022-09-20T01:33:58;10.10;99.90
24560;DHT22;12727;49.934;8.656;2022-09-20T01:36:32;10.10;99.90
24560;DHT22;12727;49.934;8.656;2022-09-20T01:39:10;9.90;99.90
24560;DHT22;12727;49.934;8.656;2022-09-20T01:46:44;9.80;99.90
24560;DHT22;12727;49.934;8.656;2022-09-20T01:49:27;9.70;99.90
24560;DHT22;12727;49.934;8.656;2022-09-20T01:57:40;9.30;99.90
24560;DHT22;12727;49.934;8.656;2022-09-20T02:00:26;9.20;99.90
24560;DHT22;12727;49.934;8.656;2022-09-20T02:09:07;9.00;99.90
24560;DHT22;12727;49.934;8.656;2022-09-20T02:17:46;8.90;99.90
24560;DHT22;12727;49.934;8.656;2022-09-20T02:23:21;8.50;99.90
24560;DHT22;12727;49.934;8.656;2022-09-20T02:26:16;8.30;99.90
24560;DHT22;12727;49.934;8.656;2022-09-20T02:32:22;8.20;99.90
24560;DHT22;12727;49.934;8.656;2022-09-20T02:35:15;8.30;99.90
24560;DHT22;12727;49.934;8.656;2022-09-20T02:51:29;8.40;99.90
24560;DHT22;12727;49.934;8.656;2022-09-20T02:54:11;8.40;99.90
24560;DHT22;12727;49.934;8.656;2022-09-20T02:57:04;8.40;99.90
24560;DHT22;12727;49.934;8.656;2022-09-20T03:02:29;8.30;99.90
24560;DHT22;12727;49.934;8.656;2022-09-20T03:05:35;8.30;99.90
24560;DHT22;12727;49.934;8.656;2022-09-20T03:36:06;8.50;99.90
24560;DHT22;12727;49.934;8.656;2022-09-20T03:39:18;8.30;99.90
24560;DHT22;12727;49.934;8.656;2022-09-20T03:42:14;7.90;99.90
24560;DHT22;12727;49.934;8.656;2022-09-20T03:53:24;7.90;99.90
24560;DHT22;12727;49.934;8.656;2022-09-20T03:59:13;8.00;99.90
24560;DHT22;12727;49.934;8.656;2022-09-20T04:04:45;8.10;99.90
24560;DHT22;12727;49.934;8.656;2022-09-20T04:07:34;8.00;99.90
24560;DHT22;12727;49.934;8.656;2022-09-20T04:10:25;8.00;99.90
24560;DHT22;12727;49.934;8.656;2022-09-20T04:21:04;7.30;99.90
24560;DHT22;12727;49.934;8.656;2022-09-20T04:23:36;7.10;99.90
24560;DHT22;12727;49.934;8.656;2022-09-20T04:26:03;7.00;99.90
24560;DHT22;12727;49.934;8.656;2022-09-20T04:28:55;7.10;99.90
24560;DHT22;12727;49.934;8.656;2022-09-20T04:31:37;7.10;99.90
24560;DHT22;12727;49.934;8.656;2022-09-20T04:34:11;7.30;99.90
24560;DHT22;12727;49.934;8.656;2022-09-20T04:39:33;7.10;99.90
24560;DHT22;12727;49.934;8.656;2022-09-20T04:53:28;7.20;99.90
24560;DHT22;12727;49.934;8.656;2022-09-20T04:56:22;7.20;99.90
24560;DHT22;12727;49.934;8.656;2022-09-20T05:05:07;7.50;99.90
24560;DHT22;12727;49.934;8.656;2022-09-20T05:08:00;7.30;99.90
24560;DHT22;12727;49.934;8.656;2022-09-20T05:19:19;7.10;99.90
24560;DHT22;12727;49.934;8.656;2022-09-20T05:30:34;7.80;99.90
24560;DHT22;12727;49.934;8.656;2022-09-20T05:38:48;8.10;99.90
24560;DHT22;12727;49.934;8.656;2022-09-20T05:43:53;8.00;99.90
24560;DHT22;12727;49.934;8.656;2022-09-20T06:00:18;7.80;99.90
24560;DHT22;12727;49.934;8.656;2022-09-20T06:05:54;7.80;99.90
24560;DHT22;12727;49.934;8.656;2022-09-20T06:14:13;8.60;99.90
24560;DHT22;12727;49.934;8.656;2022-09-20T06:17:10;9.10;99.90
24560;DHT22;12727;49.934;8.656;2022-09-20T06:25:22;9.70;99.90
24560;DHT22;12727;49.934;8.656;2022-09-20T06:30:27;10.20;99.90
24560;DHT22;12727;49.934;8.656;2022-09-20T06:33:00;10.20;99.90
24560;DHT22;12727;49.934;8.656;2022-09-20T06:35:43;10.40;99.90
24560;DHT22;12727;49.934;8.656;2022-09-20T06:41:13;10.80;99.90
24560;DHT22;12727;49.934;8.656;2022-09-20T06:43:59;11.00;99.90
24560;DHT22;12727;49.934;8.656;2022-09-20T06:46:26;11.10;99.90
24560;DHT22;12727;49.934;8.656;2022-09-20T06:48:52;11.20;99.90
24560;DHT22;12727;49.934;8.656;2022-09-20T06:51:20;11.30;99.90
24560;DHT22;12727;49.934;8.656;2022-09-20T06:53:46;11.40;99.90
24560;DHT22;12727;49.934;8.656;2022-09-20T06:56:19;11.50;99.90
24560;DHT22;12727;49.934;8.656;2022-09-20T06:58:45;11.50;99.90
24560;DHT22;12727;49.934;8.656;2022-09-20T07:01:11;11.60;99.90
24560;DHT22;12727;49.934;8.656;2022-09-20T07:03:38;11.50;99.90
24560;DHT22;12727;49.934;8.656;2022-09-20T07:06:04;11.40;99.90
24560;DHT22;12727;49.934;8.656;2022-09-20T07:08:30;11.30;99.90
24560;DHT22;12727;49.934;8.656;2022-09-20T07:11:00;11.30;99.90
24560;DHT22;12727;49.934;8.656;2022-09-20T07:13:26;11.30;99.90
24560;DHT22;12727;49.934;8.656;2022-09-20T07:15:59;11.40;99.90
24560;DHT22;12727;49.934;8.656;2022-09-20T07:18:25;11.50;99.90
24560;DHT22;12727;49.934;8.656;2022-09-20T07:20:50;11.60;99.90
24560;DHT22;12727;49.934;8.656;2022-09-20T07:23:16;11.80;99.90
24560;DHT22;12727;49.934;8.656;2022-09-20T07:25:43;11.90;99.90
24560;DHT22;12727;49.934;8.656;2022-09-20T07:28:09;11.90;99.90
24560;DHT22;12727;49.934;8.656;2022-09-20T07:30:34;12.00;99.90
24560;DHT22;12727;49.934;8.656;2022-09-20T07:33:00;12.10;99.90
24560;DHT22;12727;49.934;8.656;2022-09-20T07:35:26;12.30;99.90
24560;DHT22;12727;49.934;8.656;2022-09-20T07:37:56;12.80;99.90
24560;DHT22;12727;49.934;8.656;2022-09-20T07:40:22;13.80;99.90
24560;DHT22;12727;49.934;8.656;2022-09-20T07:42:48;14.40;99.90
24560;DHT22;12727;49.934;8.656;2022-09-20T07:45:13;14.60;99.90
24560;DHT22;12727;49.934;8.656;2022-09-20T07:47:39;14.80;99.90
24560;DHT22;12727;49.934;8.656;2022-09-20T07:50:07;14.80;99.90
24560;DHT22;12727;49.934;8.656;2022-09-20T07:52:34;15.40;99.90
24560;DHT22;12727;49.934;8.656;2022-09-20T07:54:59;15.40;99.90
24560;DHT22;12727;49.934;8.656;2022-09-20T07:57:25;15.70;99.90
24560;DHT22;12727;49.934;8.656;2022-09-20T07:59:51;15.50;99.90
24560;DHT22;12727;49.934;8.656;2022-09-20T08:02:17;15.20;99.90
24560;DHT22;12727;49.934;8.656;2022-09-20T08:04:43;15.00;99.90
24560;DHT22;12727;49.934;8.656;2022-09-20T08:07:09;14.80;99.90
24560;DHT22;12727;49.934;8.656;2022-09-20T08:09:35;14.50;99.90
24560;DHT22;12727;49.934;8.656;2022-09-20T08:12:00;14.30;99.90
24560;DHT22;12727;49.934;8.656;2022-09-20T08:14:26;14.30;99.90
24560;DHT22;12727;49.934;8.656;2022-09-20T08:16:52;14.20;99.90
24560;DHT22;12727;49.934;8.656;2022-09-20T08:19:23;14.30;99.90
24560;DHT22;12727;49.934;8.656;2022-09-20T08:21:49;15.10;99.90
24560;DHT22;12727;49.934;8.656;2022-09-20T08:24:16;15.40;99.90
24560;DHT22;12727;49.934;8.656;2022-09-20T08:26:42;15.10;99.90
24560;DHT22;12727;49.934;8.656;2022-09-20T08:29:08;14.90;99.90
24560;DHT22;12727;49.934;8.656;2022-09-20T08:31:37;15.10;99.90
24560;DHT22;12727;49.934;8.656;2022-09-20T08:34:04;15.10;99.90
24560;DHT22;12727;49.934;8.656;2022-09-20T08:36:32;14.80;99.90
24560;DHT22;12727;49.934;8.656;2022-09-20T08:38:58;14.70;99.90
24560;DHT22;12727;49.934;8.656;2022-09-20T08:46:38;14.70;99.90
24560;DHT22;12727;49.934;8.656;2022-09-20T08:49:07;16.00;99.70
24560;DHT22;12727;49.934;8.656;2022-09-20T08:51:40;17.30;97.20
24560;DHT22;12727;49.934;8.656;2022-09-20T08:54:11;17.80;95.70
24560;DHT22;12727;49.934;8.656;2022-09-20T08:56:40;18.10;93.60
24560;DHT22;12727;49.934;8.656;2022-09-20T08:59:19;18.70;91.60
24560;DHT22;12727;49.934;8.656;2022-09-20T09:01:50;19.30;89.00
24560;DHT22;12727;49.934;8.656;2022-09-20T09:04:22;18.80;87.80
24560;DHT22;12727;49.934;8.656;2022-09-20T09:06:49;18.10;88.80
24560;DHT22;12727;49.934;8.656;2022-09-20T09:09:25;18.00;88.60
24560;DHT22;12727;49.934;8.656;2022-09-20T09:11:53;17.80;87.90
24560;DHT22;12727;49.934;8.656;2022-09-20T09:14:27;17.90;87.00
24560;DHT22;12727;49.934;8.656;2022-09-20T09:17:13;18.10;87.20
24560;DHT22;12727;49.934;8.656;2022-09-20T09:22:18;17.20;83.00
24560;DHT22;12727;49.934;8.656;2022-09-20T09:24:44;16.80;83.10
24560;DHT22;12727;49.934;8.656;2022-09-20T09:27:18;16.40;85.00
24560;DHT22;12727;49.934;8.656;2022-09-20T09:29:53;16.20;85.20
24560;DHT22;12727;49.934;8.656;2022-09-20T09:32:27;15.90;87.40
24560;DHT22;12727;49.934;8.656;2022-09-20T09:34:54;15.90;88.80
24560;DHT22;12727;49.934;8.656;2022-09-20T09:37:28;16.00;88.00
24560;DHT22;12727;49.934;8.656;2022-09-20T09:40:17;16.20;86.40
24560;DHT22;12727;49.934;8.656;2022-09-20T09:42:53;16.30;83.70
24560;DHT22;12727;49.934;8.656;2022-09-20T09:45:29;17.40;82.90
24560;DHT22;12727;49.934;8.656;2022-09-20T09:47:56;18.90;76.50
24560;DHT22;12727;49.934;8.656;2022-09-20T09:50:26;20.10;73.60
24560;DHT22;12727;49.934;8.656;2022-09-20T09:53:08;19.60;71.90
24560;DHT22;12727;49.934;8.656;2022-09-20T10:01:17;18.60;75.80
24560;DHT22;12727;49.934;8.656;2022-09-20T10:03:56;19.40;72.40
24560;DHT22;12727;49.934;8.656;2022-09-20T10:06:33;19.50;67.40
24560;DHT22;12727;49.934;8.656;2022-09-20T10:12:17;20.60;64.70
24560;DHT22;12727;49.934;8.656;2022-09-20T10:24:02;19.00;63.80
24560;DHT22;12727;49.934;8.656;2022-09-20T10:29:54;19.90;62.20
24560;DHT22;12727;49.934;8.656;2022-09-20T10:32:55;20.10;57.30
24560;DHT22;12727;49.934;8.656;2022-09-20T10:38:16;17.80;64.30
24560;DHT22;12727;49.934;8.656;2022-09-20T10:41:03;17.30;65.30
24560;DHT22;12727;49.934;8.656;2022-09-20T10:44:09;17.30;66.30
24560;DHT22;12727;49.934;8.656;2022-09-20T10:49:24;17.80;66.60
24560;DHT22;12727;49.934;8.656;2022-09-20T10:52:19;17.80;67.50
24560;DHT22;12727;49.934;8.656;2022-09-20T11:01:27;17.00;68.40
24560;DHT22;12727;49.934;8.656;2022-09-20T11:06:25;16.80;69.00
24560;DHT22;12727;49.934;8.656;2022-09-20T11:08:57;16.90;70.30
24560;DHT22;12727;49.934;8.656;2022-09-20T11:11:28;16.60;69.60
24560;DHT22;12727;49.934;8.656;2022-09-20T11:14:15;16.30;73.90
24560;DHT22;12727;49.934;8.656;2022-09-20T11:23:34;15.30;82.50
24560;DHT22;12727;49.934;8.656;2022-09-20T11:25:53;15.20;83.60
24560;DHT22;12727;49.934;8.656;2022-09-20T11:28:25;15.00;84.40
24560;DHT22;12727;49.934;8.656;2022-09-20T11:31:02;15.00;85.20
24560;DHT22;12727;49.934;8.656;2022-09-20T11:33:36;15.10;84.90
24560;DHT22;12727;49.934;8.656;2022-09-20T11:36:09;15.10;83.30
24560;DHT22;12727;49.934;8.656;2022-09-20T11:38:48;15.00;82.20
24560;DHT22;12727;49.934;8.656;2022-09-20T11:41:22;15.00;81.40
24560;DHT22;12727;49.934;8.656;2022-09-20T11:43:50;15.10;80.20
24560;DHT22;12727;49.934;8.656;2022-09-20T11:46:26;15.30;78.70
24560;DHT22;12727;49.934;8.656;2022-09-20T11:51:48;16.00;73.20
24560;DHT22;12727;49.934;8.656;2022-09-20T11:57:04;16.10;74.80
24560;DHT22;12727;49.934;8.656;2022-09-20T11:59:33;16.40;73.30
24560;DHT22;12727;49.934;8.656;2022-09-20T12:02:02;16.70;71.10
24560;DHT22;12727;49.934;8.656;2022-09-20T12:04:31;16.80;70.40
24560;DHT22;12727;49.934;8.656;2022-09-20T12:07:00;17.10;70.10
24560;DHT22;12727;49.934;8.656;2022-09-20T12:09:35;17.00;69.70
24560;DHT22;12727;49.934;8.656;2022-09-20T12:12:23;17.00;70.10
24560;DHT22;12727;49.934;8.656;2022-09-20T12:14:57;17.20;71.80
24560;DHT22;12727;49.934;8.656;2022-09-20T12:28:37;16.80;72.30
24560;DHT22;12727;49.934;8.656;2022-09-20T12:41:59;16.90;73.90
24560;DHT22;12727;49.934;8.656;2022-09-20T12:44:46;17.10;73.60
24560;DHT22;12727;49.934;8.656;2022-09-20T12:47:26;17.10;73.80
24560;DHT22;12727;49.934;8.656;2022-09-20T12:49:53;17.20;73.00
24560;DHT22;12727;49.934;8.656;2022-09-20T12:55:42;17.40;72.10
24560;DHT22;12727;49.934;8.656;2022-09-20T13:03:32;17.30;67.10
24560;DHT22;12727;49.934;8.656;2022-09-20T13:09:00;16.90;69.10
24560;DHT22;12727;49.934;8.656;2022-09-20T13:14:12;16.90;69.30
24560;DHT22;12727;49.934;8.656;2022-09-20T13:16:49;16.90;69.20
24560;DHT22;12727;49.934;8.656;2022-09-20T13:19:26;16.70;69.90
24560;DHT22;12727;49.934;8.656;2022-09-20T13:21:55;16.40;71.20
24560;DHT22;12727;49.934;8.656;2022-09-20T13:24:24;16.40;73.30
24560;DHT22;12727;49.934;8.656;2022-09-20T13:26:53;16.10;77.60
24560;DHT22;12727;49.934;8.656;2022-09-20T13:29:32;15.20;83.70
24560;DHT22;12727;49.934;8.656;2022-09-20T13:32:25;14.00;91.60
24560;DHT22;12727;49.934;8.656;2022-09-20T13:37:44;12.60;99.90
24560;DHT22;12727;49.934;8.656;2022-09-20T13:43:02;12.40;99.90
24560;DHT22;12727;49.934;8.656;2022-09-20T13:45:29;12.40;99.90
24560;DHT22;12727;49.934;8.656;2022-09-20T13:47:58;12.50;99.90
24560;DHT22;12727;49.934;8.656;2022-09-20T13:50:33;12.60;99.90
24560;DHT22;12727;49.934;8.656;2022-09-20T13:53:01;12.80;99.90
24560;DHT22;12727;49.934;8.656;2022-09-20T13:55:36;12.80;99.90
24560;DHT22;12727;49.934;8.656;2022-09-20T13:58:14;13.00;99.90
24560;DHT22;12727;49.934;8.656;2022-09-20T14:01:02;13.00;99.90
24560;DHT22;12727;49.934;8.656;2022-09-20T14:03:31;13.20;99.90
24560;DHT22;12727;49.934;8.656;2022-09-20T14:06:09;13.30;99.90
24560;DHT22;12727;49.934;8.656;2022-09-20T14:08:45;13.50;99.90
24560;DHT22;12727;49.934;8.656;2022-09-20T14:11:15;13.60;99.90
24560;DHT22;12727;49.934;8.656;2022-09-20T14:13:47;13.80;99.90
24560;DHT22;12727;49.934;8.656;2022-09-20T14:16:15;14.10;99.90
24560;DHT22;12727;49.934;8.656;2022-09-20T14:18:43;14.30;99.90
24560;DHT22;12727;49.934;8.656;2022-09-20T14:21:12;14.30;99.90
24560;DHT22;12727;49.934;8.656;2022-09-20T14:24:01;14.30;99.90
24560;DHT22;12727;49.934;8.656;2022-09-20T14:26:35;14.50;99.90
24560;DHT22;12727;49.934;8.656;2022-09-20T14:29:41;14.60;99.90
24560;DHT22;12727;49.934;8.656;2022-09-20T14:32:20;14.60;99.90
24560;DHT22;12727;49.934;8.656;2022-09-20T14:37:24;14.60;99.90
24560;DHT22;12727;49.934;8.656;2022-09-20T14:39:55;14.50;99.90
24560;DHT22;12727;49.934;8.656;2022-09-20T14:42:39;14.60;99.90
24560;DHT22;12727;49.934;8.656;2022-09-20T14:45:05;14.60;99.90
24560;DHT22;12727;49.934;8.656;2022-09-20T14:47:37;14.80;99.50
24560;DHT22;12727;49.934;8.656;2022-09-20T14:50:28;14.90;99.30
24560;DHT22;12727;49.934;8.656;2022-09-20T14:55:27;14.90;98.60
24560;DHT22;12727;49.934;8.656;2022-09-20T14:58:04;14.90;98.40
24560;DHT22;12727;49.934;8.656;2022-09-20T15:00:49;15.00;98.80
24560;DHT22;12727;49.934;8.656;2022-09-20T15:03:22;15.00;98.10
24560;DHT22;12727;49.934;8.656;2022-09-20T15:05:49;15.10;97.50
24560;DHT22;12727;49.934;8.656;2022-09-20T15:08:15;15.10;97.30
24560;DHT22;12727;49.934;8.656;2022-09-20T15:10:42;15.10;96.60
24560;DHT22;12727;49.934;8.656;2022-09-20T15:13:11;15.00;96.60
24560;DHT22;12727;49.934;8.656;2022-09-20T15:15:37;15.10;96.90
24560;DHT22;12727;49.934;8.656;2022-09-20T15:18:03;15.10;97.10
24560;DHT22;12727;49.934;8.656;2022-09-20T15:20:29;15.10;96.60
24560;DHT22;12727;49.934;8.656;2022-09-20T15:22:55;15.10;96.30
24560;DHT22;12727;49.934;8.656;2022-09-20T15:25:22;15.10;95.60
24560;DHT22;12727;49.934;8.656;2022-09-20T15:27:48;15.10;95.60
24560;DHT22;12727;49.934;8.656;2022-09-20T15:30:16;15.10;94.80
24560;DHT22;12727;49.934;8.656;2022-09-20T15:32:44;15.00;94.90
24560;DHT22;12727;49.934;8.656;2022-09-20T15:35:10;15.00;94.80
24560;DHT22;12727;49.934;8.656;2022-09-20T15:37:36;14.90;94.30
24560;DHT22;12727;49.934;8.656;2022-09-20T15:40:03;15.00;93.50
24560;DHT22;12727;49.934;8.656;2022-09-20T15:42:29;14.90;93.40
24560;DHT22;12727;49.934;8.656;2022-09-20T15:44:55;14.90;92.50
24560;DHT22;12727;49.934;8.656;2022-09-20T15:47:21;14.90;92.80
24560;DHT22;12727;49.934;8.656;2022-09-20T15:49:50;14.90;92.90
24560;DHT22;12727;49.934;8.656;2022-09-20T15:52:18;14.80;93.00
24560;DHT22;12727;49.934;8.656;2022-09-20T15:54:49;14.90;93.10
24560;DHT22;12727;49.934;8.656;2022-09-20T15:57:15;14.90;92.90
24560;DHT22;12727;49.934;8.656;2022-09-20T15:59:40;14.90;92.70
24560;DHT22;12727;49.934;8.656;2022-09-20T16:02:07;14.80;92.30
24560;DHT22;12727;49.934;8.656;2022-09-20T16:04:34;14.80;91.90
24560;DHT22;12727;49.934;8.656;2022-09-20T16:07:00;14.90;92.10
24560;DHT22;12727;49.934;8.656;2022-09-20T16:09:27;14.90;91.40
24560;DHT22;12727;49.934;8.656;2022-09-20T16:11:52;14.90;91.40
24560;DHT22;12727;49.934;8.656;2022-09-20T16:14:23;14.90;91.60
24560;DHT22;12727;49.934;8.656;2022-09-20T16:16:48;14.80;91.40
24560;DHT22;12727;49.934;8.656;2022-09-20T16:19:14;14.70;90.80
24560;DHT22;12727;49.934;8.656;2022-09-20T16:21:55;14.70;91.20
24560;DHT22;12727;49.934;8.656;2022-09-20T16:24:29;14.60;91.30
24560;DHT22;12727;49.934;8.656;2022-09-20T16:26:55;14.60;91.40
24560;DHT22;12727;49.934;8.656;2022-09-20T16:29:21;14.50;91.60
24560;DHT22;12727;49.934;8.656;2022-09-20T16:31:48;14.50;91.80
24560;DHT22;12727;49.934;8.656;2022-09-20T16:34:29;14.40;92.20
24560;DHT22;12727;49.934;8.656;2022-09-20T16:36:57;14.40;91.70
24560;DHT22;12727;49.934;8.656;2022-09-20T16:39:26;14.30;92.00
24560;DHT22;12727;49.934;8.656;2022-09-20T16:41:57;14.30;91.70
24560;DHT22;12727;49.934;8.656;2022-09-20T16:44:27;14.20;91.80
24560;DHT22;12727;49.934;8.656;2022-09-20T16:46:53;14.20;92.00
24560;DHT22;12727;49.934;8.656;2022-09-20T16:49:19;14.10;92.30
24560;DHT22;12727;49.934;8.656;2022-09-20T16:51:44;14.10;92.60
24560;DHT22;12727;49.934;8.656;2022-09-20T16:54:14;14.00;92.70
24560;DHT22;12727;49.934;8.656;2022-09-20T16:56:44;14.00;93.00
24560;DHT22;12727;49.934;8.656;2022-09-20T16:59:11;13.90;93.30
24560;DHT22;12727;49.934;8.656;2022-09-20T17:01:38;13.90;93.90
24560;DHT22;12727;49.934;8.656;2022-09-20T17:04:05;13.80;94.20
24560;DHT22;12727;49.934;8.656;2022-09-20T17:06:31;13.80;94.50
24560;DHT22;12727;49.934;8.656;2022-09-20T17:08:58;13.60;94.30
24560;DHT22;12727;49.934;8.656;2022-09-20T17:11:30;13.60;94.60
24560;DHT22;12727;49.934;8.656;2022-09-20T17:13:56;13.60;94.70
24560;DHT22;12727;49.934;8.656;2022-09-20T17:16:25;13.50;95.10
24560;DHT22;12727;49.934;8.656;2022-09-20T17:19:00;13.60;95.20
24560;DHT22;12727;49.934;8.656;2022-09-20T17:21:28;13.60;95.70
24560;DHT22;12727;49.934;8.656;2022-09-20T17:23:57;13.50;96.40
24560;DHT22;12727;49.934;8.656;2022-09-20T17:26:31;13.50;97.00
24560;DHT22;12727;49.934;8.656;2022-09-20T17:28:59;13.50;97.60
24560;DHT22;12727;49.934;8.656;2022-09-20T17:31:36;13.40;98.20
24560;DHT22;12727;49.934;8.656;2022-09-20T17:34:04;13.20;99.80
24560;DHT22;12727;49.934;8.656;2022-09-20T17:36:34;13.10;99.90
24560;DHT22;12727;49.934;8.656;2022-09-20T17:39:03;12.90;99.90
24560;DHT22;12727;49.934;8.656;2022-09-20T17:41:29;12.80;99.90
24560;DHT22;12727;49.934;8.656;2022-09-20T17:43:57;12.70;99.90
24560;DHT22;12727;49.934;8.656;2022-09-20T17:46:28;12.60;99.90
24560;DHT22;12727;49.934;8.656;2022-09-20T17:48:58;12.60;99.90
24560;DHT22;12727;49.934;8.656;2022-09-20T17:51:31;12.70;99.90
24560;DHT22;12727;49.934;8.656;2022-09-20T17:53:58;12.50;99.90
24560;DHT22;12727;49.934;8.656;2022-09-20T17:56:24;12.40;99.90
24560;DHT22;12727;49.934;8.656;2022-09-20T17:58:59;12.40;99.90
24560;DHT22;12727;49.934;8.656;2022-09-20T18:01:26;12.40;99.90
24560;DHT22;12727;49.934;8.656;2022-09-20T18:03:52;12.30;99.90
24560;DHT22;12727;49.934;8.656;2022-09-20T18:06:20;12.40;99.90
24560;DHT22;12727;49.934;8.656;2022-09-20T18:08:48;12.40;99.90
24560;DHT22;12727;49.934;8.656;2022-09-20T18:11:16;12.60;99.90
24560;DHT22;12727;49.934;8.656;2022-09-20T18:13:42;12.70;99.90
24560;DHT22;12727;49.934;8.656;2022-09-20T18:16:13;12.60;99.90
24560;DHT22;12727;49.934;8.656;2022-09-20T18:18:39;12.50;99.90
24560;DHT22;12727;49.934;8.656;2022-09-20T18:21:21;12.40;99.90
24560;DHT22;12727;49.934;8.656;2022-09-20T18:23:49;12.60;99.90
24560;DHT22;12727;49.934;8.656;2022-09-20T18:26:20;12.70;99.90
24560;DHT22;12727;49.934;8.656;2022-09-20T18:28:50;12.70;99.90
24560;DHT22;12727;49.934;8.656;2022-09-20T18:31:16;12.80;99.90
24560;DHT22;12727;49.934;8.656;2022-09-20T18:33:42;12.80;99.90
24560;DHT22;12727;49.934;8.656;2022-09-20T18:36:08;12.80;99.90
24560;DHT22;12727;49.934;8.656;2022-09-20T18:38:34;12.70;99.90
24560;DHT22;12727;49.934;8.656;2022-09-20T18:41:01;12.70;99.90
24560;DHT22;12727;49.934;8.656;2022-09-20T18:43:28;12.50;99.90
24560;DHT22;12727;49.934;8.656;2022-09-20T18:45:55;12.30;99.90
24560;DHT22;12727;49.934;8.656;2022-09-20T18:48:22;12.50;99.90
24560;DHT22;12727;49.934;8.656;2022-09-20T18:51:02;12.40;99.90
24560;DHT22;12727;49.934;8.656;2022-09-20T18:53:33;12.20;99.90
24560;DHT22;12727;49.934;8.656;2022-09-20T18:58:45;12.10;99.90
24560;DHT22;12727;49.934;8.656;2022-09-20T19:09:48;12.10;99.90
24560;DHT22;12727;49.934;8.656;2022-09-20T19:18:00;11.90;99.90
24560;DHT22;12727;49.934;8.656;2022-09-20T19:20:36;12.00;99.90
24560;DHT22;12727;49.934;8.656;2022-09-20T19:28:36;12.40;99.90
24560;DHT22;12727;49.934;8.656;2022-09-20T19:31:02;12.30;99.90
24560;DHT22;12727;49.934;8.656;2022-09-20T19:33:27;12.30;99.90
24560;DHT22;12727;49.934;8.656;2022-09-20T19:35:54;12.10;99.90
24560;DHT22;12727;49.934;8.656;2022-09-20T19:38:44;12.10;99.90
24560;DHT22;12727;49.934;8.656;2022-09-20T19:41:43;12.20;99.90
24560;DHT22;12727;49.934;8.656;2022-09-20T19:44:30;12.20;99.90
24560;DHT22;12727;49.934;8.656;2022-09-20T19:49:55;11.90;99.90
24560;DHT22;12727;49.934;8.656;2022-09-20T19:52:23;11.80;99.90
24560;DHT22;12727;49.934;8.656;2022-09-20T19:54:49;11.70;99.90
24560;DHT22;12727;49.934;8.656;2022-09-20T19:59:44;11.80;99.90
24560;DHT22;12727;49.934;8.656;2022-09-20T20:02:11;12.10;99.90
24560;DHT22;12727;49.934;8.656;2022-09-20T20:04:37;12.10;99.90
24560;DHT22;12727;49.934;8.656;2022-09-20T20:12:43;12.10;99.90
24560;DHT22;12727;49.934;8.656;2022-09-20T20:21:25;11.60;99.90
24560;DHT22;12727;49.934;8.656;2022-09-20T20:24:13;11.50;99.90
24560;DHT22;12727;49.934;8.656;2022-09-20T20:26:44;11.50;99.90
24560;DHT22;12727;49.934;8.656;2022-09-20T20:29:09;11.90;99.90
24560;DHT22;12727;49.934;8.656;2022-09-20T20:31:36;12.10;99.90
24560;DHT22;12727;49.934;8.656;2022-09-20T20:34:02;12.20;99.90
24560;DHT22;12727;49.934;8.656;2022-09-20T20:36:27;11.90;99.90
24560;DHT22;12727;49.934;8.656;2022-09-20T20:38:53;11.60;99.90
24560;DHT22;12727;49.934;8.656;2022-09-20T20:41:19;11.50;99.90
24560;DHT22;12727;49.934;8.656;2022-09-20T20:43:47;11.30;99.90
24560;DHT22;12727;49.934;8.656;2022-09-20T20:46:15;11.30;99.90
24560;DHT22;12727;49.934;8.656;2022-09-20T20:48:41;11.40;99.90
24560;DHT22;12727;49.934;8.656;2022-09-20T20:51:18;11.50;99.90
24560;DHT22;12727;49.934;8.656;2022-09-20T20:53:50;11.50;99.90
24560;DHT22;12727;49.934;8.656;2022-09-20T20:56:21;11.70;99.90
24560;DHT22;12727;49.934;8.656;2022-09-20T20:58:48;11.60;99.90
24560;DHT22;12727;49.934;8.656;2022-09-20T21:01:21;11.50;99.90
24560;DHT22;12727;49.934;8.656;2022-09-20T21:03:49;11.50;99.90
24560;DHT22;12727;49.934;8.656;2022-09-20T21:06:15;11.50;99.90
24560;DHT22;12727;49.934;8.656;2022-09-20T21:08:43;11.50;99.90
24560;DHT22;12727;49.934;8.656;2022-09-20T21:11:23;11.50;99.90
24560;DHT22;12727;49.934;8.656;2022-09-20T21:13:50;11.40;99.90
24560;DHT22;12727;49.934;8.656;2022-09-20T21:16:18;11.20;99.90
24560;DHT22;12727;49.934;8.656;2022-09-20T21:18:45;10.90;99.90
24560;DHT22;12727;49.934;8.656;2022-09-20T21:21:14;10.80;99.90
24560;DHT22;12727;49.934;8.656;2022-09-20T21:23:40;10.60;99.90
24560;DHT22;12727;49.934;8.656;2022-09-20T21:26:07;10.80;99.90
24560;DHT22;12727;49.934;8.656;2022-09-20T21:28:40;10.90;99.90
24560;DHT22;12727;49.934;8.656;2022-09-20T21:31:07;10.90;99.90